Time;durP1;ratioP1;P1;durP2;ratioP2;P2;SDS_P1;SDS_P2;PMS_P1;PMS_P2;Temp;Humidity;BMP_temperature;BMP_pressure;BME280_temperature;BME280_humidity;BME280_pressure;Samples;Min_cycle;Max_cycle;Signal;HPM_P1;HPM_P2
2021/03/01 00:00:12;;;;;;;9.98;3.20;;;;;;;;;;5055871;28;20248;-54
2021/03/01 00:02:39;;;;;;;6.70;3.22;;;;;;;;;;5055766;28;20075;-54
2021/03/01 00:05:06;;;;;;;8.02;2.97;;;;;;;;;;5055751;28;20086;-54
2021/03/01 00:07:33;;;;;;;6.25;2.70;;;;;;;;;;5055938;28;20067;-54
2021/03/01 00:10:00;;;;;;;6.05;2.78;;;;;;;;;;5055649;28;20037;-54
2021/03/01 00:12:27;;;;;;;5.10;2.60;;;;;;;;;;5055538;28;20025;-54
2021/03/01 00:14:54;;;;;;;5.97;3.10;;;;;;;;;;5055521;28;20080;-54
2021/03/01 00:17:21;;;;;;;12.35;2.90;;;;;;;;;;5055476;28;20036;-55
2021/03/01 00:19:48;;;;;;;5.32;2.75;;;;;;;;;;5055394;28;20047;-54
2021/03/01 00:22:15;;;;;;;8.32;3.08;;;;;;;;;;5055375;28;20392;-54
2021/03/01 00:24:42;;;;;;;10.82;3.10;;;;;;;;;;5055467;28;20032;-54
2021/03/01 00:27:09;;;;;;;11.02;3.00;;;;;;;;;;5055123;28;20051;-54
2021/03/01 00:29:36;;;;;;;9.98;3.17;;;;;;;;;;5055334;28;20028;-54
2021/03/01 00:32:03;;;;;;;7.35;2.78;;;;;;;;;;5055409;28;20099;-54
2021/03/01 00:34:30;;;;;;;8.90;3.08;;;;;;;;;;5055030;28;20071;-54
2021/03/01 00:36:57;;;;;;;10.57;2.90;;;;;;;;;;5055188;28;20060;-54
2021/03/01 00:39:23;;;;;;;20.40;4.32;;;;;;;;;;5055210;28;20046;-54
2021/03/01 00:41:50;;;;;;;6.93;2.60;;;;;;;;;;5055101;28;20480;-54
2021/03/01 00:44:17;;;;;;;9.10;3.05;;;;;;;;;;5054564;28;20021;-54
2021/03/01 00:46:44;;;;;;;12.90;3.00;;;;;;;;;;5054930;28;20067;-54
2021/03/01 00:49:11;;;;;;;6.03;2.60;;;;;;;;;;5054860;28;20017;-54
2021/03/01 00:51:38;;;;;;;15.77;3.15;;;;;;;;;;5055047;28;20025;-54
2021/03/01 00:54:05;;;;;;;6.60;3.20;;;;;;;;;;5054940;28;20036;-54
2021/03/01 00:56:32;;;;;;;16.50;3.42;;;;;;;;;;5054868;28;20384;-54
2021/03/01 00:58:59;;;;;;;10.00;3.70;;;;;;;;;;5054866;28;20027;-54
2021/03/01 01:01:25;;;;;;;6.00;3.92;;;;;;;;;;5054813;28;20033;-54
2021/03/01 01:03:52;;;;;;;10.90;4.63;;;;;;;;;;5054511;28;20039;-54
2021/03/01 01:06:19;;;;;;;12.50;4.05;;;;;;;;;;5054510;28;20047;-54
2021/03/01 01:08:46;;;;;;;11.90;3.50;;;;;;;;;;5054615;28;20035;-54
2021/03/01 01:11:13;;;;;;;8.97;4.00;;;;;;;;;;5054538;28;20104;-54
2021/03/01 01:13:40;;;;;;;12.20;4.00;;;;;;;;;;5054712;28;20032;-54
2021/03/01 01:16:07;;;;;;;12.87;3.60;;;;;;;;;;5054579;28;20100;-54
2021/03/01 01:18:34;;;;;;;13.20;4.50;;;;;;;;;;5054438;28;20068;-54
2021/03/01 01:21:01;;;;;;;11.47;3.93;;;;;;;;;;5054457;28;20021;-54
2021/03/01 01:23:28;;;;;;;10.47;4.13;;;;;;;;;;5054274;28;20021;-54
2021/03/01 01:25:55;;;;;;;14.37;4.23;;;;;;;;;;5054034;28;20075;-54
2021/03/01 01:28:30;;;;;;;9.43;4.50;;;;;;;;;;5054216;28;20029;-54
2021/03/01 01:30:57;;;;;;;16.73;4.67;;;;;;;;;;5054481;28;20037;-54
2021/03/01 01:33:24;;;;;;;10.07;4.67;;;;;;;;;;5054237;28;20021;-54
2021/03/01 01:35:50;;;;;;;11.27;5.00;;;;;;;;;;5054041;28;20404;-54
2021/03/01 01:38:17;;;;;;;17.63;4.33;;;;;;;;;;5053952;28;20028;-55
2021/03/01 01:40:44;;;;;;;13.03;4.27;;;;;;;;;;5053961;28;20025;-54
2021/03/01 01:43:11;;;;;;;7.23;4.07;;;;;;;;;;5053881;28;20064;-55
2021/03/01 01:45:38;;;;;;;11.77;4.50;;;;;;;;;;5053832;28;20480;-55
2021/03/01 01:48:08;;;;;;;12.33;4.00;;;;;;;;;;5053777;28;20056;-54
2021/03/01 01:50:35;;;;;;;9.27;4.67;;;;;;;;;;5053814;28;20088;-54
2021/03/01 01:53:02;;;;;;;8.70;4.13;;;;;;;;;;5053699;28;20038;-54
2021/03/01 01:55:32;;;;;;;7.50;4.90;;;;;;;;;;5034980;28;20032;-54
2021/03/01 01:57:59;;;;;;;7.10;4.97;;;;;;;;;;5053591;28;20024;-54
2021/03/01 02:00:46;;;;;;;7.30;4.70;;;;;;;;;;5053535;28;20033;-54
2021/03/01 02:03:18;;;;;;;7.40;5.00;;;;;;;;;;5053579;28;20108;-54
2021/03/01 02:05:47;;;;;;;10.50;5.90;;;;;;;;;;5053267;28;20037;-54
2021/03/01 02:08:20;;;;;;;11.97;5.50;;;;;;;;;;5053397;28;20028;-53
2021/03/01 02:10:54;;;;;;;13.97;5.53;;;;;;;;;;5053409;28;20484;-53
2021/03/01 02:13:30;;;;;;;7.67;5.40;;;;;;;;;;5053383;28;20032;-54
2021/03/01 02:15:57;;;;;;;12.37;6.00;;;;;;;;;;5053340;28;20025;-54
2021/03/01 02:18:23;;;;;;;10.13;5.43;;;;;;;;;;5053213;28;20107;-53
2021/03/01 02:20:51;;;;;;;11.43;6.07;;;;;;;;;;5053277;28;20029;-53
2021/03/01 02:23:19;;;;;;;11.57;5.47;;;;;;;;;;5053282;28;20017;-54
2021/03/01 02:26:05;;;;;;;8.90;5.47;;;;;;;;;;5053327;28;20059;-54
2021/03/01 02:28:38;;;;;;;7.70;5.33;;;;;;;;;;5052954;28;20384;-54
2021/03/01 02:31:07;;;;;;;9.73;5.50;;;;;;;;;;5053432;28;20056;-53
2021/03/01 02:33:37;;;;;;;7.77;5.83;;;;;;;;;;5053176;28;20025;-54
2021/03/01 02:36:10;;;;;;;10.90;5.67;;;;;;;;;;5052920;28;20044;-54
2021/03/01 02:38:38;;;;;;;9.27;5.87;;;;;;;;;;5052943;28;20437;-54
2021/03/01 02:41:05;;;;;;;7.87;5.77;;;;;;;;;;5052863;28;20104;-54
2021/03/01 02:43:32;;;;;;;10.27;5.77;;;;;;;;;;5052832;28;20143;-54
2021/03/01 02:46:00;;;;;;;7.27;5.90;;;;;;;;;;5052994;28;20029;-54
2021/03/01 02:48:27;;;;;;;13.17;6.27;;;;;;;;;;5052927;28;20101;-54
2021/03/01 02:50:55;;;;;;;9.37;6.83;;;;;;;;;;5052791;28;20464;-54
2021/03/01 02:53:22;;;;;;;7.90;6.17;;;;;;;;;;5052863;28;20021;-54
2021/03/01 02:55:50;;;;;;;11.63;6.60;;;;;;;;;;5052799;28;20029;-54
2021/03/01 02:58:18;;;;;;;13.10;5.90;;;;;;;;;;5052795;28;20028;-54
2021/03/01 03:00:53;;;;;;;10.63;6.50;;;;;;;;;;5052655;28;20032;-54
2021/03/01 03:03:19;;;;;;;;;;;;;;;;;;5053033;28;20024;-54
2021/03/01 03:05:47;;;;;;;10.83;6.40;;;;;;;;;;5052385;28;19971;-54
2021/03/01 03:08:14;;;;;;;8.57;6.57;;;;;;;;;;5058055;28;20025;-54
2021/03/01 03:10:42;;;;;;;9.40;6.27;;;;;;;;;;5059356;28;20043;-54
2021/03/01 03:13:10;;;;;;;9.30;6.40;;;;;;;;;;5059312;28;20028;-54
2021/03/01 03:15:37;;;;;;;9.27;6.60;;;;;;;;;;5059180;28;20472;-54
2021/03/01 03:18:04;;;;;;;12.37;6.47;;;;;;;;;;5059271;28;20017;-54
2021/03/01 03:20:31;;;;;;;13.20;6.80;;;;;;;;;;5059179;28;20537;-54
2021/03/01 03:22:58;;;;;;;9.67;6.87;;;;;;;;;;5059419;28;20056;-54
2021/03/01 03:25:25;;;;;;;9.77;6.53;;;;;;;;;;5059123;28;20575;-54
2021/03/01 03:27:52;;;;;;;10.63;5.90;;;;;;;;;;5058940;28;20036;-54
2021/03/01 03:30:21;;;;;;;11.83;6.63;;;;;;;;;;5059061;28;20032;-54
2021/03/01 03:32:49;;;;;;;12.93;7.60;;;;;;;;;;5059270;28;20110;-54
2021/03/01 03:35:16;;;;;;;10.67;6.83;;;;;;;;;;5058989;28;20032;-54
2021/03/01 03:37:46;;;;;;;10.10;6.30;;;;;;;;;;5059059;28;20021;-54
2021/03/01 03:40:14;;;;;;;8.53;6.37;;;;;;;;;;5058836;28;20388;-54
2021/03/01 03:42:42;;;;;;;9.83;5.80;;;;;;;;;;5058976;28;20017;-54
2021/03/01 03:45:13;;;;;;;12.17;5.53;;;;;;;;;;5058847;28;20037;-54
2021/03/01 03:47:42;;;;;;;11.33;5.30;;;;;;;;;;5058971;28;20024;-54
2021/03/01 03:50:10;;;;;;;12.43;5.30;;;;;;;;;;5058952;28;20195;-54
2021/03/01 03:52:39;;;;;;;14.00;5.87;;;;;;;;;;5058851;28;20040;-54
2021/03/01 03:55:07;;;;;;;8.30;5.33;;;;;;;;;;5058935;28;20495;-54
2021/03/01 03:57:37;;;;;;;7.83;5.87;;;;;;;;;;5058998;28;20021;-54
2021/03/01 04:00:06;;;;;;;13.20;5.93;;;;;;;;;;5059057;28;20498;-54
2021/03/01 04:02:35;;;;;;;7.73;5.23;;;;;;;;;;5058796;28;20099;-54
2021/03/01 04:05:03;;;;;;;14.97;6.20;;;;;;;;;;5058663;28;20082;-54
2021/03/01 04:07:32;;;;;;;14.23;5.93;;;;;;;;;;5058735;28;20024;-54
2021/03/01 04:10:00;;;;;;;13.63;6.03;;;;;;;;;;5058671;28;20033;-54
2021/03/01 04:12:30;;;;;;;9.97;6.27;;;;;;;;;;5058620;28;20035;-54
2021/03/01 04:14:57;;;;;;;11.07;5.40;;;;;;;;;;5058606;28;20067;-54
2021/03/01 04:17:24;;;;;;;7.57;5.10;;;;;;;;;;5058636;28;20108;-54
2021/03/01 04:19:52;;;;;;;8.30;5.67;;;;;;;;;;5055120;28;20384;-54
2021/03/01 04:22:19;;;;;;;9.97;5.00;;;;;;;;;;5055746;28;20025;-54
2021/03/01 04:24:46;;;;;;;8.23;4.13;;;;;;;;;;5055453;28;20037;-54
2021/03/01 04:27:14;;;;;;;8.27;5.60;;;;;;;;;;5055267;28;20040;-54
2021/03/01 04:29:41;;;;;;;8.33;5.80;;;;;;;;;;5055371;28;20024;-54
2021/03/01 04:32:07;;;;;;;11.03;5.17;;;;;;;;;;5055598;28;20053;-54
2021/03/01 04:34:35;;;;;;;9.87;4.00;;;;;;;;;;5055200;28;20032;-54
2021/03/01 04:37:01;;;;;;;8.37;4.37;;;;;;;;;;5055077;28;20021;-54
2021/03/01 04:39:28;;;;;;;10.77;5.03;;;;;;;;;;5055123;28;20029;-54
2021/03/01 04:41:55;;;;;;;7.10;4.07;;;;;;;;;;5055123;28;20055;-54
2021/03/01 04:44:22;;;;;;;7.77;4.73;;;;;;;;;;5055044;28;20372;-54
2021/03/01 04:46:56;;;;;;;7.83;4.03;;;;;;;;;;5054880;28;20037;-54
2021/03/01 04:49:23;;;;;;;7.18;4.32;;;;;;;;;;5055002;28;20086;-54
2021/03/01 04:51:50;;;;;;;9.23;4.40;;;;;;;;;;5054966;28;20071;-55
2021/03/01 04:54:17;;;;;;;6.10;4.27;;;;;;;;;;5055022;28;20020;-55
2021/03/01 04:56:45;;;;;;;8.27;4.03;;;;;;;;;;5054780;28;20052;-55
2021/03/01 04:59:15;;;;;;;9.57;4.40;;;;;;;;;;5054738;28;20437;-55
2021/03/01 05:01:46;;;;;;;10.43;3.93;;;;;;;;;;5054710;28;20025;-55
2021/03/01 05:04:13;;;;;;;6.33;3.67;;;;;;;;;;5054603;28;20025;-54
2021/03/01 05:06:41;;;;;;;6.40;3.77;;;;;;;;;;5054508;28;20081;-54
2021/03/01 05:09:08;;;;;;;11.80;4.97;;;;;;;;;;5054686;28;20017;-54
2021/03/01 05:11:39;;;;;;;11.97;4.97;;;;;;;;;;5054640;28;20025;-54
2021/03/01 05:14:06;;;;;;;13.67;5.17;;;;;;;;;;5054586;28;20033;-54
2021/03/01 05:16:36;;;;;;;9.80;4.90;;;;;;;;;;5054389;28;20027;-54
2021/03/01 05:19:04;;;;;;;9.63;4.70;;;;;;;;;;5054496;28;20024;-54
2021/03/01 05:21:31;;;;;;;8.03;4.10;;;;;;;;;;5054891;28;20411;-54
2021/03/01 05:23:57;;;;;;;5.90;3.87;;;;;;;;;;5054522;28;20379;-54
2021/03/01 05:26:28;;;;;;;7.30;4.20;;;;;;;;;;5054115;28;20549;-54
2021/03/01 05:28:55;;;;;;;9.17;4.63;;;;;;;;;;5054157;28;20419;-54
2021/03/01 05:31:24;;;;;;;5.57;3.87;;;;;;;;;;5053354;28;20098;-54
2021/03/01 05:33:51;;;;;;;6.40;3.70;;;;;;;;;;5054165;28;20043;-54
2021/03/01 05:36:20;;;;;;;7.23;4.60;;;;;;;;;;5054121;28;20052;-54
2021/03/01 05:38:47;;;;;;;7.27;3.97;;;;;;;;;;5054021;28;20032;-54
2021/03/01 05:41:17;;;;;;;7.10;3.97;;;;;;;;;;5054003;28;20025;-54
2021/03/01 05:43:44;;;;;;;7.60;3.93;;;;;;;;;;5053957;28;20029;-54
2021/03/01 05:46:11;;;;;;;5.70;4.00;;;;;;;;;;5053833;28;20100;-54
2021/03/01 05:48:38;;;;;;;6.80;3.97;;;;;;;;;;5053909;28;20021;-54
2021/03/01 05:51:08;;;;;;;6.97;4.43;;;;;;;;;;5053749;28;20468;-54
2021/03/01 05:53:42;;;;;;;7.87;4.87;;;;;;;;;;5053977;28;20421;-54
2021/03/01 05:56:13;;;;;;;8.95;5.00;;;;;;;;;;5053597;28;20025;-54
2021/03/01 05:58:44;;;;;;;11.60;5.43;;;;;;;;;;5053868;28;20025;-53
2021/03/01 06:01:16;;;;;;;12.00;5.10;;;;;;;;;;5053723;28;20057;-54
2021/03/01 06:03:46;;;;;;;8.77;5.67;;;;;;;;;;5053403;28;20079;-53
2021/03/01 06:06:13;;;;;;;7.93;5.53;;;;;;;;;;5053534;28;20076;-54
2021/03/01 06:08:43;;;;;;;8.37;4.70;;;;;;;;;;5053393;28;20543;-53
2021/03/01 06:11:10;;;;;;;7.83;4.73;;;;;;;;;;5053398;28;20413;-53
2021/03/01 06:13:38;;;;;;;6.97;4.07;;;;;;;;;;5053257;28;20045;-54
2021/03/01 06:16:06;;;;;;;7.93;4.47;;;;;;;;;;5053511;28;20028;-54
2021/03/01 06:18:43;;;;;;;6.33;3.97;;;;;;;;;;5053331;28;20025;-54
2021/03/01 06:21:14;;;;;;;8.43;4.73;;;;;;;;;;5053200;28;20056;-54
2021/03/01 06:23:43;;;;;;;6.47;4.57;;;;;;;;;;5053238;28;20096;-54
2021/03/01 06:26:28;;;;;;;7.33;4.80;;;;;;;;;;5053090;28;20037;-54
2021/03/01 06:29:15;;;;;;;5.88;4.68;;;;;;;;;;5053026;28;20610;-53
2021/03/01 06:31:43;;;;;;;10.53;4.77;;;;;;;;;;5053489;28;20033;-54
2021/03/01 06:34:24;;;;;;;7.70;4.30;;;;;;;;;;5052813;28;20442;-54
2021/03/01 06:36:59;;;;;;;7.47;4.40;;;;;;;;;;5052055;28;20408;-53
2021/03/01 06:39:44;;;;;;;7.47;4.87;;;;;;;;;;5052892;28;20029;-54
2021/03/01 06:42:18;;;;;;;7.18;4.05;;;;;;;;;;5052651;28;20029;-53
2021/03/01 06:44:44;;;;;;;6.80;4.10;;;;;;;;;;5052096;28;20040;-54
2021/03/01 06:47:12;;;;;;;10.63;4.47;;;;;;;;;;5051813;28;20439;-53
2021/03/01 06:49:40;;;;;;;8.77;4.27;;;;;;;;;;5052848;28;20071;-53
2021/03/01 06:52:08;;;;;;;6.30;4.43;;;;;;;;;;5052851;28;20021;-54
2021/03/01 06:54:35;;;;;;;7.53;4.57;;;;;;;;;;5052848;28;20028;-53
2021/03/01 06:57:03;;;;;;;8.03;4.57;;;;;;;;;;5052982;28;20060;-53
2021/03/01 06:59:29;;;;;;;5.87;3.97;;;;;;;;;;5052643;28;20482;-54
2021/03/01 07:01:59;;;;;;;6.93;4.63;;;;;;;;;;5052913;28;20032;-54
2021/03/01 07:04:28;;;;;;;8.33;3.80;;;;;;;;;;5052884;28;20051;-53
2021/03/01 07:06:55;;;;;;;6.13;3.67;;;;;;;;;;5052567;28;20033;-53
2021/03/01 07:09:27;;;;;;;6.13;4.13;;;;;;;;;;5052692;28;20479;-53
2021/03/01 07:11:54;;;;;;;6.27;3.60;;;;;;;;;;5052502;28;20384;-54
2021/03/01 07:14:22;;;;;;;10.47;4.17;;;;;;;;;;5052499;28;20104;-53
2021/03/01 07:16:50;;;;;;;15.57;4.07;;;;;;;;;;5052436;28;20075;-53
2021/03/01 07:19:19;;;;;;;5.00;3.50;;;;;;;;;;5052439;28;20025;-53
2021/03/01 07:21:47;;;;;;;5.20;3.90;;;;;;;;;;5052497;28;20561;-53
2021/03/01 07:24:17;;;;;;;7.87;4.20;;;;;;;;;;5052443;28;20024;-53
2021/03/01 07:26:44;;;;;;;8.17;3.70;;;;;;;;;;5051547;28;20049;-53
2021/03/01 07:29:12;;;;;;;8.57;4.03;;;;;;;;;;5052424;28;20021;-53
2021/03/01 07:31:52;;;;;;;7.97;3.43;;;;;;;;;;5052774;28;20467;-53
2021/03/01 07:34:19;;;;;;;5.23;3.50;;;;;;;;;;5052436;28;20060;-53
2021/03/01 07:36:46;;;;;;;5.00;3.17;;;;;;;;;;5052427;28;20025;-53
2021/03/01 07:39:13;;;;;;;10.90;4.67;;;;;;;;;;5052636;28;20143;-53
2021/03/01 07:41:40;;;;;;;10.40;4.37;;;;;;;;;;5052368;28;20044;-53
2021/03/01 07:44:08;;;;;;;8.90;3.50;;;;;;;;;;5052248;28;20067;-53
2021/03/01 07:46:37;;;;;;;7.53;4.27;;;;;;;;;;5052317;28;20041;-53
2021/03/01 07:49:04;;;;;;;10.00;3.80;;;;;;;;;;5052042;28;20029;-53
2021/03/01 07:51:47;;;;;;;4.70;3.37;;;;;;;;;;5052294;28;20033;-53
2021/03/01 07:54:15;;;;;;;8.00;4.60;;;;;;;;;;5053663;28;20024;-53
2021/03/01 07:56:42;;;;;;;6.67;4.10;;;;;;;;;;5056035;28;20108;-53
2021/03/01 07:59:10;;;;;;;11.23;5.73;;;;;;;;;;5056050;28;20040;-53
2021/03/01 08:01:37;;;;;;;8.57;3.80;;;;;;;;;;5055871;28;20056;-53
2021/03/01 08:04:05;;;;;;;6.83;3.50;;;;;;;;;;5055769;28;20392;-53
2021/03/01 08:06:50;;;;;;;5.47;3.40;;;;;;;;;;5055595;28;20068;-53
2021/03/01 08:09:36;;;;;;;6.13;3.05;;;;;;;;;;5055878;28;20033;-53
2021/03/01 08:12:03;;;;;;;7.00;3.13;;;;;;;;;;5055676;28;20028;-53
2021/03/01 08:15:07;;;;;;;7.83;3.40;;;;;;;;;;5055624;28;20434;-53
2021/03/01 08:17:38;;;;;;;8.03;3.30;;;;;;;;;;4974652;28;20117;-53
2021/03/01 08:20:16;;;;;;;6.07;3.43;;;;;;;;;;5042760;28;20033;-53
2021/03/01 08:23:01;;;;;;;7.27;3.37;;;;;;;;;;5055792;28;20036;-53
2021/03/01 08:25:58;;;;;;;9.52;2.92;;;;;;;;;;5055419;28;20103;-53
2021/03/01 08:28:30;;;;;;;5.03;3.03;;;;;;;;;;5038750;28;20083;-53
2021/03/01 08:31:09;;;;;;;5.93;3.33;;;;;;;;;;5055266;28;20051;-53
2021/03/01 08:33:36;;;;;;;7.40;3.67;;;;;;;;;;5055706;28;20079;-53
2021/03/01 08:36:15;;;;;;;6.30;3.93;;;;;;;;;;5055174;28;20052;-53
2021/03/01 08:38:42;;;;;;;6.67;3.37;;;;;;;;;;5055360;28;20072;-53
2021/03/01 08:41:09;;;;;;;5.20;2.83;;;;;;;;;;5055160;28;20417;-53
2021/03/01 08:43:37;;;;;;;5.63;3.90;;;;;;;;;;5055070;28;20119;-53
2021/03/01 08:46:05;;;;;;;6.00;4.10;;;;;;;;;;5054904;28;20119;-53
2021/03/01 08:48:45;;;;;;;8.37;3.70;;;;;;;;;;5054972;28;20032;-53
2021/03/01 08:51:12;;;;;;;6.87;4.00;;;;;;;;;;5055073;28;20472;-53
2021/03/01 08:53:39;;;;;;;6.87;4.40;;;;;;;;;;5054868;28;20072;-53
2021/03/01 08:56:06;;;;;;;9.63;3.90;;;;;;;;;;5054919;28;20037;-53
2021/03/01 08:58:34;;;;;;;11.20;3.93;;;;;;;;;;5054802;28;20029;-53
2021/03/01 09:01:05;;;;;;;5.57;3.60;;;;;;;;;;5054685;28;20487;-53
2021/03/01 09:03:39;;;;;;;8.57;4.03;;;;;;;;;;5054509;28;20037;-53
2021/03/01 09:06:06;;;;;;;7.03;3.73;;;;;;;;;;5054640;28;20040;-53
2021/03/01 09:08:34;;;;;;;8.87;3.93;;;;;;;;;;5054727;28;20021;-53
2021/03/01 09:11:03;;;;;;;7.63;3.40;;;;;;;;;;5054697;28;20096;-53
2021/03/01 09:13:30;;;;;;;8.80;3.90;;;;;;;;;;5054646;28;20025;-53
2021/03/01 09:16:04;;;;;;;5.80;3.63;;;;;;;;;;5053591;28;20526;-53
2021/03/01 09:18:33;;;;;;;7.00;3.50;;;;;;;;;;5054529;28;20021;-53
2021/03/01 09:21:00;;;;;;;8.27;3.53;;;;;;;;;;5054497;28;20025;-53
2021/03/01 09:23:33;;;;;;;9.60;3.63;;;;;;;;;;5053571;28;20041;-53
2021/03/01 09:26:00;;;;;;;7.63;4.27;;;;;;;;;;5054409;28;20033;-53
2021/03/01 09:28:31;;;;;;;8.00;4.13;;;;;;;;;;5054153;28;20032;-53
2021/03/01 09:31:05;;;;;;;6.90;3.47;;;;;;;;;;5054161;28;20025;-53
2021/03/01 09:33:32;;;;;;;8.10;4.60;;;;;;;;;;5054585;28;20171;-53
2021/03/01 09:36:02;;;;;;;9.87;3.40;;;;;;;;;;5054098;28;20021;-53
2021/03/01 09:38:29;;;;;;;7.07;3.60;;;;;;;;;;5054169;28;20091;-53
2021/03/01 09:41:00;;;;;;;5.30;3.13;;;;;;;;;;5054027;28;20021;-53
2021/03/01 09:43:27;;;;;;;13.73;3.47;;;;;;;;;;5054099;28;20033;-53
2021/03/01 09:45:55;;;;;;;9.03;4.27;;;;;;;;;;5053952;28;20055;-53
2021/03/01 09:48:21;;;;;;;7.37;3.70;;;;;;;;;;5054044;28;20025;-53
2021/03/01 09:50:55;;;;;;;5.83;3.40;;;;;;;;;;5053845;28;20033;-53
2021/03/01 09:53:22;;;;;;;7.07;3.10;;;;;;;;;;5053783;28;20052;-53
2021/03/01 09:55:52;;;;;;;7.30;3.87;;;;;;;;;;5053609;28;20546;-53
2021/03/01 09:58:30;;;;;;;11.63;4.00;;;;;;;;;;5053474;28;20095;-53
2021/03/01 10:01:14;;;;;;;5.90;3.53;;;;;;;;;;5053859;28;20036;-53
2021/03/01 10:03:44;;;;;;;5.73;3.73;;;;;;;;;;5053418;28;20032;-53
2021/03/01 10:06:18;;;;;;;7.93;4.00;;;;;;;;;;5053683;28;20391;-53
2021/03/01 10:08:45;;;;;;;10.97;3.70;;;;;;;;;;5053733;28;20358;-53
2021/03/01 10:11:22;;;;;;;5.70;3.30;;;;;;;;;;5053458;28;20497;-53
2021/03/01 10:13:49;;;;;;;5.40;3.60;;;;;;;;;;5053411;28;20024;-53
2021/03/01 10:16:35;;;;;;;5.77;3.53;;;;;;;;;;5053010;28;20024;-53
2021/03/01 10:19:18;;;;;;;6.97;3.27;;;;;;;;;;5053066;28;20388;-53
2021/03/01 10:21:47;;;;;;;7.80;4.00;;;;;;;;;;5053571;28;20586;-53
2021/03/01 10:24:15;;;;;;;6.40;4.20;;;;;;;;;;5053194;28;20025;-53
2021/03/01 10:27:01;;;;;;;6.43;3.67;;;;;;;;;;5052765;28;20052;-53
2021/03/01 10:29:32;;;;;;;6.30;3.65;;;;;;;;;;5052739;28;20037;-53
2021/03/01 10:32:02;;;;;;;7.53;3.67;;;;;;;;;;5053380;28;20039;-53
2021/03/01 10:34:30;;;;;;;4.80;3.27;;;;;;;;;;5053012;28;20096;-53
2021/03/01 10:36:58;;;;;;;6.57;3.87;;;;;;;;;;5053026;28;20258;-53
2021/03/01 10:39:25;;;;;;;5.00;3.30;;;;;;;;;;5052964;28;20104;-53
2021/03/01 10:41:53;;;;;;;6.63;4.20;;;;;;;;;;5035153;28;20029;-53
2021/03/01 10:44:34;;;;;;;4.97;3.23;;;;;;;;;;5052974;28;20052;-53
2021/03/01 10:47:23;;;;;;;5.23;3.30;;;;;;;;;;5052877;28;20072;-53
2021/03/01 10:49:51;;;;;;;6.47;4.00;;;;;;;;;;5033338;28;20064;-53
2021/03/01 10:52:18;;;;;;;8.37;3.90;;;;;;;;;;5052868;28;20535;-53
2021/03/01 10:54:45;;;;;;;6.73;3.70;;;;;;;;;;5052706;28;20641;-53
2021/03/01 10:57:15;;;;;;;7.13;3.23;;;;;;;;;;5052819;28;20029;-53
2021/03/01 10:59:44;;;;;;;7.03;3.80;;;;;;;;;;5052764;28;20399;-53
2021/03/01 11:02:13;;;;;;;6.27;3.40;;;;;;;;;;5052754;28;20036;-53
2021/03/01 11:04:40;;;;;;;7.73;3.70;;;;;;;;;;5052508;28;20242;-53
2021/03/01 11:07:07;;;;;;;5.47;3.50;;;;;;;;;;5052614;28;20261;-53
2021/03/01 11:09:34;;;;;;;5.10;2.90;;;;;;;;;;5052563;28;20613;-52
2021/03/01 11:12:05;;;;;;;5.33;3.17;;;;;;;;;;5052577;28;20387;-53
2021/03/01 11:14:35;;;;;;;7.87;3.30;;;;;;;;;;5052868;28;20365;-53
2021/03/01 11:17:03;;;;;;;5.83;3.77;;;;;;;;;;5052778;28;20609;-53
2021/03/01 11:19:30;;;;;;;7.47;3.33;;;;;;;;;;5052571;28;20261;-53
2021/03/01 11:21:57;;;;;;;5.67;3.90;;;;;;;;;;5052730;28;20391;-53
2021/03/01 11:24:24;;;;;;;9.43;4.10;;;;;;;;;;5052395;28;20258;-53
2021/03/01 11:26:52;;;;;;;6.10;3.83;;;;;;;;;;5052410;28;20282;-53
2021/03/01 11:29:19;;;;;;;6.13;3.80;;;;;;;;;;5055581;28;20250;-53
2021/03/01 11:31:46;;;;;;;5.43;3.20;;;;;;;;;;5056613;28;20254;-53
2021/03/01 11:34:13;;;;;;;9.07;3.43;;;;;;;;;;5056583;28;20248;-52
2021/03/01 11:36:40;;;;;;;6.60;3.10;;;;;;;;;;5056405;28;20250;-53
2021/03/01 11:39:08;;;;;;;5.10;3.00;;;;;;;;;;5056263;28;20427;-53
2021/03/01 11:41:36;;;;;;;9.73;4.13;;;;;;;;;;5038426;28;20776;-53
2021/03/01 11:44:03;;;;;;;9.00;3.90;;;;;;;;;;5056223;28;20254;-53
2021/03/01 11:46:30;;;;;;;6.40;3.70;;;;;;;;;;5056185;28;20407;-53
2021/03/01 11:48:57;;;;;;;7.10;3.57;;;;;;;;;;5056202;28;20254;-53
2021/03/01 11:51:24;;;;;;;8.47;3.53;;;;;;;;;;5056079;28;20246;-53
2021/03/01 11:53:53;;;;;;;7.77;3.73;;;;;;;;;;5056470;28;20694;-53
2021/03/01 11:56:20;;;;;;;6.87;4.30;;;;;;;;;;5055892;28;20337;-53
2021/03/01 11:58:47;;;;;;;8.53;3.80;;;;;;;;;;5056100;28;20376;-53
2021/03/01 12:01:23;;;;;;;8.20;4.13;;;;;;;;;;5055909;28;20253;-53
2021/03/01 12:03:53;;;;;;;11.60;3.90;;;;;;;;;;5055725;28;20764;-53
2021/03/01 12:06:20;;;;;;;9.27;4.13;;;;;;;;;;5055653;28;20290;-53
2021/03/01 12:08:53;;;;;;;10.53;4.27;;;;;;;;;;5055815;28;20364;-53
2021/03/01 12:11:23;;;;;;;7.80;3.80;;;;;;;;;;5055875;28;20254;-53
2021/03/01 12:13:51;;;;;;;14.90;5.80;;;;;;;;;;5055588;28;20264;-53
2021/03/01 12:16:21;;;;;;;10.87;4.80;;;;;;;;;;5055552;28;20258;-53
2021/03/01 12:18:48;;;;;;;12.63;5.27;;;;;;;;;;5055520;28;20250;-53
2021/03/01 12:21:15;;;;;;;10.73;5.53;;;;;;;;;;5055518;28;20246;-53
2021/03/01 12:23:44;;;;;;;7.47;4.90;;;;;;;;;;5055752;28;20651;-53
2021/03/01 12:26:11;;;;;;;7.57;4.60;;;;;;;;;;5055411;28;20385;-53
2021/03/01 12:28:38;;;;;;;9.27;4.40;;;;;;;;;;5055527;28;20250;-53
2021/03/01 12:31:05;;;;;;;7.57;3.50;;;;;;;;;;5055564;28;20255;-53
2021/03/01 12:33:32;;;;;;;7.67;3.87;;;;;;;;;;5055490;28;20280;-53
2021/03/01 12:35:59;;;;;;;11.47;4.77;;;;;;;;;;5055417;28;20258;-53
2021/03/01 12:38:31;;;;;;;27.00;9.70;;;;;;;;;;5055327;28;20246;-53
2021/03/01 12:40:58;;;;;;;17.80;7.17;;;;;;;;;;5054399;28;20311;-53
2021/03/01 12:43:25;;;;;;;12.87;6.13;;;;;;;;;;5055258;28;20255;-53
2021/03/01 12:45:52;;;;;;;9.00;4.90;;;;;;;;;;5055057;28;20290;-53
2021/03/01 12:48:19;;;;;;;23.43;10.63;;;;;;;;;;5054977;28;20261;-53
2021/03/01 12:50:46;;;;;;;20.97;10.13;;;;;;;;;;5055128;28;20336;-53
2021/03/01 12:53:12;;;;;;;15.27;6.93;;;;;;;;;;5054907;28;20606;-53
2021/03/01 12:55:39;;;;;;;13.47;6.50;;;;;;;;;;5054918;28;20254;-53
2021/03/01 12:58:06;;;;;;;18.30;7.00;;;;;;;;;;5054941;28;20400;-53
2021/03/01 13:00:33;;;;;;;16.77;6.50;;;;;;;;;;5054876;28;20258;-53
2021/03/01 13:03:00;;;;;;;15.60;6.53;;;;;;;;;;5054801;28;20250;-53
2021/03/01 13:05:27;;;;;;;18.90;9.27;;;;;;;;;;5054540;28;20320;-53
2021/03/01 13:07:54;;;;;;;13.83;7.07;;;;;;;;;;5054759;28;20258;-53
2021/03/01 13:10:21;;;;;;;16.60;7.47;;;;;;;;;;5054597;28;20745;-53
2021/03/01 13:12:48;;;;;;;13.93;7.33;;;;;;;;;;5054521;28;20326;-53
2021/03/01 13:15:14;;;;;;;12.37;6.07;;;;;;;;;;5054476;28;20254;-53
2021/03/01 13:17:41;;;;;;;12.80;6.00;;;;;;;;;;5054754;28;20606;-53
2021/03/01 13:20:08;;;;;;;14.23;5.80;;;;;;;;;;5054583;28;20262;-53
2021/03/01 13:22:35;;;;;;;16.60;5.57;;;;;;;;;;5054408;28;20257;-53
2021/03/01 13:25:02;;;;;;;15.13;6.57;;;;;;;;;;5054606;28;20282;-53
2021/03/01 13:27:29;;;;;;;19.33;6.30;;;;;;;;;;5054364;28;20255;-53
2021/03/01 13:29:55;;;;;;;14.60;6.40;;;;;;;;;;5054084;28;20254;-53
2021/03/01 13:32:22;;;;;;;14.87;5.60;;;;;;;;;;5054505;28;20286;-53
2021/03/01 13:34:49;;;;;;;8.60;5.20;;;;;;;;;;5054082;28;20345;-53
2021/03/01 13:37:16;;;;;;;18.17;5.77;;;;;;;;;;5054088;28;20258;-53
2021/03/01 13:39:42;;;;;;;7.93;3.70;;;;;;;;;;5054099;28;20826;-53
2021/03/01 13:42:16;;;;;;;20.30;4.90;;;;;;;;;;5054038;28;20357;-53
2021/03/01 13:44:42;;;;;;;14.33;6.50;;;;;;;;;;5053845;28;20302;-53
2021/03/01 13:47:09;;;;;;;12.90;3.90;;;;;;;;;;5053892;28;20345;-53
2021/03/01 13:49:36;;;;;;;12.53;4.20;;;;;;;;;;5054265;28;20273;-53
2021/03/01 13:52:03;;;;;;;11.77;4.10;;;;;;;;;;5052815;28;20262;-53
2021/03/01 13:54:30;;;;;;;12.10;3.87;;;;;;;;;;5053740;28;20056;-53
2021/03/01 13:56:56;;;;;;;16.07;5.30;;;;;;;;;;5053829;28;20032;-53
2021/03/01 13:59:23;;;;;;;7.83;3.40;;;;;;;;;;5053748;28;20108;-53
2021/03/01 14:01:50;;;;;;;8.43;4.23;;;;;;;;;;5054356;28;20021;-53
2021/03/01 14:04:17;;;;;;;8.83;4.30;;;;;;;;;;5053583;28;20021;-53
2021/03/01 14:06:44;;;;;;;8.63;3.83;;;;;;;;;;5053482;28;20033;-53
2021/03/01 14:09:11;;;;;;;7.27;3.37;;;;;;;;;;5053534;28;20025;-53
2021/03/01 14:11:38;;;;;;;9.23;3.80;;;;;;;;;;5053401;28;20033;-53
2021/03/01 14:14:05;;;;;;;8.03;4.07;;;;;;;;;;5053475;28;20468;-53
2021/03/01 14:16:31;;;;;;;8.03;3.73;;;;;;;;;;5053318;28;20046;-53
2021/03/01 14:18:58;;;;;;;6.37;3.80;;;;;;;;;;5053290;28;20029;-54
2021/03/01 14:21:26;;;;;;;13.50;3.50;;;;;;;;;;5053294;28;20029;-54
2021/03/01 14:23:53;;;;;;;8.73;4.33;;;;;;;;;;5053195;28;20025;-54
2021/03/01 14:26:20;;;;;;;10.07;4.33;;;;;;;;;;5053083;28;20036;-54
2021/03/01 14:28:46;;;;;;;7.43;3.70;;;;;;;;;;5053128;28;20102;-54
2021/03/01 14:31:13;;;;;;;5.97;3.73;;;;;;;;;;5053047;28;20032;-54
2021/03/01 14:33:40;;;;;;;8.37;3.80;;;;;;;;;;5053527;28;20071;-54
2021/03/01 14:36:07;;;;;;;12.90;5.17;;;;;;;;;;5053100;28;20055;-54
2021/03/01 14:38:34;;;;;;;9.23;4.37;;;;;;;;;;5053100;28;20029;-54
2021/03/01 14:41:00;;;;;;;14.83;6.23;;;;;;;;;;5052961;28;20029;-54
2021/03/01 14:43:28;;;;;;;13.33;5.60;;;;;;;;;;5053056;28;20028;-54
2021/03/01 14:45:54;;;;;;;14.67;5.60;;;;;;;;;;5052735;28;20087;-54
2021/03/01 14:48:21;;;;;;;17.97;5.77;;;;;;;;;;5052864;28;20029;-54